Time;durP1;ratioP1;P1;durP2;ratioP2;P2;SDS_P1;SDS_P2;PMS_P1;PMS_P2;Temp;Humidity;BMP_temperature;BMP_pressure;BME280_temperature;BME280_humidity;BME280_pressure;Samples;Min_cycle;Max_cycle;Signal;HPM_P1;HPM_P2
2022/03/10 00:02:07;;;;;;;1999.90;999.90;;;13.60;58.30;;;;;;4970551;28;20313;-90
2022/03/10 00:04:34;;;;;;;1999.90;999.90;;;13.50;58.30;;;;;;4972013;28;20035;-89
2022/03/10 00:07:02;;;;;;;1999.90;999.90;;;13.50;58.40;;;;;;4953541;28;20050;-88
2022/03/10 00:09:29;;;;;;;1999.90;999.90;;;13.50;58.50;;;;;;4970542;28;20050;-89
2022/03/10 00:11:55;;;;;;;1999.90;999.90;;;13.40;58.50;;;;;;4954969;28;20039;-89
2022/03/10 00:14:21;;;;;;;1999.90;999.90;;;13.30;58.50;;;;;;4955240;28;20031;-89
2022/03/10 00:16:49;;;;;;;1999.90;999.90;;;13.40;58.60;;;;;;4970725;28;20039;-89
2022/03/10 00:19:16;;;;;;;1999.90;999.90;;;13.40;58.60;;;;;;4972051;28;20027;-89
2022/03/10 00:21:43;;;;;;;1999.90;999.90;;;13.30;58.60;;;;;;4986634;28;20054;-89
2022/03/10 00:24:09;;;;;;;1999.90;999.90;;;13.30;58.60;;;;;;4971107;28;20071;-89
2022/03/10 00:26:37;;;;;;;1999.90;999.90;;;13.30;58.70;;;;;;4970601;28;20031;-89
2022/03/10 00:29:03;;;;;;;1999.90;999.90;;;13.30;58.80;;;;;;4940141;28;20034;-89
2022/03/10 00:31:30;;;;;;;1999.90;999.90;;;13.30;58.80;;;;;;4956693;28;20043;-90
2022/03/10 00:33:56;;;;;;;1999.90;999.90;;;13.30;58.80;;;;;;4968789;28;20034;-89
2022/03/10 00:36:23;;;;;;;1999.90;999.90;;;13.30;58.80;;;;;;4969975;28;20057;-89
2022/03/10 00:38:49;;;;;;;1999.90;999.90;;;13.30;58.80;;;;;;4954568;28;20039;-89
2022/03/10 00:41:15;;;;;;;1999.90;999.90;;;13.20;58.80;;;;;;4969752;28;20038;-89
2022/03/10 00:43:42;;;;;;;1999.90;999.90;;;13.20;58.90;;;;;;4954558;28;20502;-91
2022/03/10 00:46:08;;;;;;;1999.90;999.90;;;13.20;59.00;;;;;;4957458;28;20047;-89
2022/03/10 00:48:34;;;;;;;1999.90;999.90;;;13.10;59.50;;;;;;4944415;28;20038;-90
2022/03/10 00:51:00;;;;;;;1999.90;999.90;;;13.20;59.10;;;;;;4956656;28;20099;-90
2022/03/10 00:53:26;;;;;;;1999.90;999.90;;;13.10;59.00;;;;;;4976778;28;20417;-89
2022/03/10 00:55:52;;;;;;;1999.90;999.90;;;13.10;59.10;;;;;;4944296;28;20049;-91
2022/03/10 00:58:18;;;;;;;1999.90;999.90;;;13.10;59.10;;;;;;4979856;28;20046;-91
2022/03/10 01:00:44;;;;;;;1999.90;999.90;;;13.10;59.20;;;;;;4975983;28;20031;-91
2022/03/10 01:03:10;;;;;;;1999.90;999.90;;;13.10;59.30;;;;;;4975425;28;20043;-91
2022/03/10 01:05:37;;;;;;;1999.90;999.90;;;13.00;59.30;;;;;;4973302;28;20031;-90
2022/03/10 01:08:03;;;;;;;1999.90;999.90;;;13.00;59.40;;;;;;4976848;28;20536;-91
2022/03/10 01:10:29;;;;;;;1999.90;999.90;;;13.00;59.40;;;;;;4974739;28;20041;-90
2022/03/10 01:12:55;;;;;;;1999.90;999.90;;;12.90;59.40;;;;;;4960846;28;20053;-91
2022/03/10 01:15:23;;;;;;;1999.90;999.90;;;12.90;59.50;;;;;;4960928;28;20045;-90
2022/03/10 01:17:49;;;;;;;1999.90;999.90;;;12.90;59.50;;;;;;4961892;28;20046;-91
2022/03/10 01:20:16;;;;;;;1999.90;999.90;;;12.90;59.60;;;;;;4976365;28;20039;-88
2022/03/10 01:22:43;;;;;;;1999.90;999.90;;;12.90;59.60;;;;;;4961493;28;20496;-89
2022/03/10 01:25:09;;;;;;;1999.90;999.90;;;12.90;59.60;;;;;;4976003;28;20031;-89
2022/03/10 01:27:35;;;;;;;1999.90;999.90;;;12.90;59.70;;;;;;4977897;28;20042;-91
2022/03/10 01:30:02;;;;;;;1999.90;999.90;;;12.80;59.70;;;;;;4976146;28;20027;-89
2022/03/10 01:32:28;;;;;;;1999.90;999.90;;;12.80;59.70;;;;;;4960173;28;20042;-89
2022/03/10 01:34:55;;;;;;;1999.90;999.90;;;12.80;59.70;;;;;;4976339;28;20125;-91
2022/03/10 01:37:22;;;;;;;1999.90;999.90;;;12.80;59.80;;;;;;4978574;28;20034;-90
2022/03/10 01:39:48;;;;;;;1999.90;999.90;;;12.80;59.80;;;;;;4974017;28;20047;-91
2022/03/10 01:42:14;;;;;;;1999.90;999.90;;;12.80;59.90;;;;;;4975065;28;20547;-90
2022/03/10 01:44:40;;;;;;;1999.90;999.90;;;12.80;59.90;;;;;;4976584;28;20034;-90
2022/03/10 01:47:07;;;;;;;1999.90;999.90;;;12.80;59.90;;;;;;4975956;28;20034;-89
2022/03/10 01:49:33;;;;;;;1999.90;999.90;;;12.80;60.00;;;;;;4976592;28;20387;-89
2022/03/10 01:52:00;;;;;;;1999.90;999.90;;;12.80;60.00;;;;;;4975424;28;20042;-90
2022/03/10 01:54:26;;;;;;;1999.90;999.90;;;12.80;60.00;;;;;;4960102;28;20392;-89
2022/03/10 01:56:53;;;;;;;1999.90;999.90;;;12.80;60.10;;;;;;4958059;28;20034;-89
2022/03/10 01:59:19;;;;;;;1999.90;999.90;;;12.80;60.10;;;;;;4956447;28;20400;-90
2022/03/10 02:01:45;;;;;;;1999.90;999.90;;;12.80;60.10;;;;;;4973262;28;20047;-89
2022/03/10 02:04:12;;;;;;;1999.90;999.90;;;12.80;60.10;;;;;;4956783;28;20041;-90
2022/03/10 02:06:38;;;;;;;1999.90;999.90;;;12.80;60.10;;;;;;4956243;28;20026;-91
2022/03/10 02:11:49;;;;;;;1999.90;999.90;;;12.80;60.20;;;;;;4976314;28;20035;-89
2022/03/10 02:19:45;;;;;;;1999.90;999.90;;;12.80;60.40;;;;;;4963674;28;20031;-89
2022/03/10 02:22:12;;;;;;;1999.90;999.90;;;12.70;60.40;;;;;;4940693;28;20062;-89
2022/03/10 02:24:40;;;;;;;1999.90;999.90;;;12.80;60.50;;;;;;4956428;28;20042;-91
2022/03/10 02:27:22;;;;;;;1999.90;999.90;;;12.80;60.50;;;;;;4955614;28;20035;-90
2022/03/10 02:29:49;;;;;;;1999.90;999.90;;;12.80;60.50;;;;;;4972581;28;20037;-90
2022/03/10 02:32:15;;;;;;;1999.90;999.90;;;12.80;61.30;;;;;;4972800;28;20502;-90
2022/03/10 02:34:41;;;;;;;1999.90;999.90;;;12.80;60.50;;;;;;4973819;28;20039;-89
2022/03/10 02:37:08;;;;;;;1999.90;999.90;;;12.80;60.60;;;;;;4935992;29;20043;-90
2022/03/10 02:39:34;;;;;;;1999.90;999.90;;;12.80;60.70;;;;;;4966993;28;20052;-89
2022/03/10 02:42:00;;;;;;;1999.90;999.90;;;12.80;61.50;;;;;;4955351;28;20050;-88
2022/03/10 02:44:27;;;;;;;1999.90;999.90;;;12.80;60.80;;;;;;4956969;28;20062;-89
2022/03/10 02:46:53;;;;;;;1999.90;999.90;;;12.80;60.90;;;;;;4973566;28;20054;-89
2022/03/10 02:49:19;;;;;;;1999.90;999.90;;;12.80;61.00;;;;;;4973312;28;20035;-90
2022/03/10 02:51:45;;;;;;;1999.90;999.90;;;12.80;61.10;;;;;;4957795;28;20472;-88
2022/03/10 02:54:11;;;;;;;1999.90;999.90;;;12.80;61.10;;;;;;4970485;28;20027;-90
2022/03/10 02:56:37;;;;;;;1999.90;999.90;;;12.80;61.00;;;;;;4972147;28;20030;-90
2022/03/10 02:59:04;;;;;;;1999.90;999.90;;;12.80;61.00;;;;;;4973544;28;20023;-91
2022/03/10 03:01:30;;;;;;;1999.90;999.90;;;12.80;61.80;;;;;;4957438;28;20027;-88
2022/03/10 03:03:56;;;;;;;1999.90;999.90;;;12.90;61.10;;;;;;4968511;28;20038;-89
2022/03/10 03:06:22;;;;;;;1999.90;999.90;;;12.90;61.00;;;;;;4952407;28;20050;-90
2022/03/10 03:08:48;;;;;;;1999.90;999.90;;;12.90;61.10;;;;;;4954258;28;20053;-89
2022/03/10 03:11:15;;;;;;;1999.90;999.90;;;12.90;61.10;;;;;;4971832;28;20035;-92
2022/03/10 03:13:41;;;;;;;1999.90;999.90;;;12.90;61.20;;;;;;4958500;28;20031;-90
2022/03/10 03:16:07;;;;;;;1999.90;999.90;;;12.90;61.20;;;;;;4971476;28;20046;-91
2022/03/10 03:18:33;;;;;;;1999.90;999.90;;;12.90;61.30;;;;;;4957061;28;20030;-91
2022/03/10 03:20:59;;;;;;;1999.90;999.90;;;12.90;61.40;;;;;;4973038;28;20057;-92
2022/03/10 03:23:25;;;;;;;1999.90;999.90;;;12.90;61.40;;;;;;4960105;28;20065;-89
2022/03/10 03:25:51;;;;;;;1999.90;999.90;;;12.90;61.40;;;;;;4959128;28;20027;-90
2022/03/10 03:28:21;;;;;;;1999.90;999.90;;;12.90;61.40;;;;;;4955010;28;20050;-90
2022/03/10 03:30:48;;;;;;;1999.90;999.90;;;12.90;61.50;;;;;;4976086;28;20042;-91
2022/03/10 03:33:14;;;;;;;1999.90;999.90;;;12.80;61.50;;;;;;4974284;28;20376;-90
2022/03/10 03:35:41;;;;;;;1999.90;999.90;;;12.80;61.70;;;;;;4957163;28;20041;-89
2022/03/10 03:38:07;;;;;;;1999.90;999.90;;;12.80;61.70;;;;;;4974604;28;20042;-89
2022/03/10 03:40:33;;;;;;;1999.90;999.90;;;12.80;61.80;;;;;;4975587;28;20050;-91
2022/03/10 03:43:00;;;;;;;1999.90;999.90;;;12.80;62.00;;;;;;4974622;28;20060;-89
2022/03/10 03:45:27;;;;;;;1999.90;999.90;;;12.80;62.10;;;;;;4969601;28;20043;-91
2022/03/10 03:47:53;;;;;;;1999.90;999.90;;;12.80;62.20;;;;;;4956539;28;20034;-90
2022/03/10 03:50:20;;;;;;;1999.90;999.90;;;12.70;62.20;;;;;;4954769;28;20039;-90
2022/03/10 03:52:46;;;;;;;1999.90;999.90;;;12.70;62.20;;;;;;4976684;28;20026;-89
2022/03/10 03:55:12;;;;;;;1999.90;999.90;;;12.70;62.30;;;;;;4942194;28;20050;-91
2022/03/10 03:57:38;;;;;;;1999.90;999.90;;;12.70;62.40;;;;;;4975588;28;20039;-90
2022/03/10 04:00:08;;;;;;;1999.90;999.90;;;12.60;62.40;;;;;;4973506;28;20043;-90
2022/03/10 04:02:34;;;;;;;1999.90;999.90;;;12.60;62.60;;;;;;4976956;28;20042;-89
2022/03/10 04:05:00;;;;;;;1999.90;999.90;;;12.60;62.60;;;;;;4959196;28;20050;-89
2022/03/10 04:07:27;;;;;;;1999.90;999.90;;;12.50;62.60;;;;;;4976374;28;20429;-90
2022/03/10 04:09:53;;;;;;;1999.90;999.90;;;12.50;62.80;;;;;;4975075;28;20018;-90
2022/03/10 04:12:19;;;;;;;1999.90;999.90;;;12.50;62.90;;;;;;4959297;28;20505;-91
2022/03/10 04:14:45;;;;;;;1999.90;999.90;;;12.40;62.90;;;;;;4961275;28;20038;-90
2022/03/10 04:17:11;;;;;;;1999.90;999.90;;;12.40;63.00;;;;;;4991956;28;20043;-90
2022/03/10 04:19:37;;;;;;;1999.90;999.90;;;12.40;63.10;;;;;;4975114;28;20170;-91
2022/03/10 04:22:03;;;;;;;1999.90;999.90;;;12.40;63.10;;;;;;4942435;28;20042;-89
2022/03/10 04:24:30;;;;;;;1999.90;999.90;;;12.40;63.10;;;;;;4973295;28;20050;-89
2022/03/10 04:26:56;;;;;;;1999.90;999.90;;;12.30;63.10;;;;;;4970542;28;20027;-89
2022/03/10 04:29:22;;;;;;;1999.90;999.90;;;12.30;63.20;;;;;;4974666;28;20046;-89
2022/03/10 04:31:48;;;;;;;1999.90;999.90;;;12.30;63.30;;;;;;4975569;28;20027;-89
2022/03/10 04:34:14;;;;;;;1999.90;999.90;;;12.20;63.40;;;;;;4987151;28;20412;-90
2022/03/10 04:36:40;;;;;;;1999.90;999.90;;;12.20;63.50;;;;;;4976116;28;20034;-92
2022/03/10 04:39:07;;;;;;;1999.90;999.90;;;12.20;63.60;;;;;;4969684;28;20043;-85
2022/03/10 04:41:34;;;;;;;1999.90;999.90;;;12.10;63.60;;;;;;4971923;28;20368;-85
2022/03/10 04:44:00;;;;;;;1999.90;999.90;;;12.10;63.80;;;;;;4969379;28;20182;-87
2022/03/10 04:46:26;;;;;;;1999.90;999.90;;;12.10;63.90;;;;;;4965077;28;20030;-85
2022/03/10 04:48:53;;;;;;;1999.90;999.90;;;12.00;64.10;;;;;;4952384;28;20037;-84
2022/03/10 04:51:19;;;;;;;1999.90;999.90;;;12.00;64.30;;;;;;4954609;28;20046;-85
2022/03/10 04:53:45;;;;;;;1999.90;999.90;;;12.00;64.30;;;;;;4952130;28;20038;-85
2022/03/10 04:56:11;;;;;;;1999.90;999.90;;;12.00;64.30;;;;;;4953051;28;20042;-84
2022/03/10 04:58:37;;;;;;;1999.90;999.90;;;12.00;64.40;;;;;;4939006;28;20464;-86
2022/03/10 05:01:03;;;;;;;1999.90;999.90;;;12.00;64.30;;;;;;4967897;28;20039;-91
2022/03/10 05:03:31;;;;;;;1999.90;999.90;;;12.00;64.40;;;;;;4969837;28;20047;-88
2022/03/10 05:05:58;;;;;;;1999.90;999.90;;;12.00;64.40;;;;;;4971485;28;20043;-88
2022/03/10 05:08:24;;;;;;;1999.90;999.90;;;12.00;64.50;;;;;;4954775;28;20035;-88
2022/03/10 05:10:50;;;;;;;1999.90;999.90;;;12.00;64.50;;;;;;4970397;28;20057;-89
2022/03/10 05:13:16;;;;;;;1999.90;999.90;;;12.00;64.50;;;;;;4971744;28;20050;-90
2022/03/10 05:15:43;;;;;;;1999.90;999.90;;;12.00;64.40;;;;;;4984870;28;20066;-90
2022/03/10 05:18:09;;;;;;;1999.90;999.90;;;12.00;64.50;;;;;;4969385;28;20383;-89
2022/03/10 05:20:35;;;;;;;1999.90;999.90;;;12.00;64.40;;;;;;4937613;28;20480;-89
2022/03/10 05:23:02;;;;;;;1999.90;999.90;;;12.00;64.30;;;;;;4925910;28;20424;-88
2022/03/10 05:25:36;;;;;;;1999.90;999.90;;;12.00;64.40;;;;;;4972478;28;20042;-88
2022/03/10 05:28:03;;;;;;;1999.90;999.90;;;12.00;64.40;;;;;;4972408;28;20036;-88
2022/03/10 05:30:29;;;;;;;1999.90;999.90;;;12.00;64.40;;;;;;4970761;28;20042;-88
2022/03/10 05:32:55;;;;;;;1999.90;999.90;;;12.00;64.50;;;;;;4973735;28;20035;-88
2022/03/10 05:35:22;;;;;;;1999.90;999.90;;;11.90;64.60;;;;;;4975124;28;20039;-86
2022/03/10 05:37:48;;;;;;;1999.90;999.90;;;12.00;64.60;;;;;;4958829;28;20042;-89
2022/03/10 05:40:17;;;;;;;1999.90;999.90;;;12.00;64.60;;;;;;4949456;28;20047;-89
2022/03/10 05:42:43;;;;;;;1999.90;999.90;;;11.90;64.70;;;;;;4974135;28;20041;-89
2022/03/10 05:45:09;;;;;;;1999.90;999.90;;;11.90;64.60;;;;;;4967913;28;20054;-90
2022/03/10 05:47:35;;;;;;;1999.90;999.90;;;11.90;64.60;;;;;;4960840;28;20030;-89
2022/03/10 05:50:02;;;;;;;1999.90;999.90;;;11.90;64.70;;;;;;4956445;28;20043;-89
2022/03/10 05:52:29;;;;;;;1999.90;999.90;;;11.80;64.80;;;;;;4942370;28;20039;-89
2022/03/10 05:54:55;;;;;;;1999.90;999.90;;;11.90;64.80;;;;;;4968132;28;20034;-89
2022/03/10 05:57:21;;;;;;;1999.90;999.90;;;11.90;64.70;;;;;;4969498;28;20030;-88
2022/03/10 05:59:47;;;;;;;1999.90;999.90;;;11.90;64.70;;;;;;4968531;28;20381;-88
2022/03/10 06:02:16;;;;;;;1999.90;999.90;;;11.90;64.60;;;;;;4972302;28;20039;-89
2022/03/10 06:04:42;;;;;;;1999.90;999.90;;;11.90;64.60;;;;;;4957322;28;20038;-88
2022/03/10 06:07:08;;;;;;;1999.90;999.90;;;11.90;64.60;;;;;;4937848;28;20043;-89
2022/03/10 06:09:35;;;;;;;1999.90;999.90;;;11.90;64.60;;;;;;4969132;28;20027;-89
2022/03/10 06:12:01;;;;;;;1999.90;999.90;;;11.90;64.70;;;;;;4970716;28;20030;-88
2022/03/10 06:14:27;;;;;;;1999.90;999.90;;;11.90;64.60;;;;;;4970723;28;20043;-88
2022/03/10 06:16:53;;;;;;;1999.90;999.90;;;12.00;64.70;;;;;;4970217;28;20039;-89
2022/03/10 06:19:19;;;;;;;1999.90;999.90;;;12.00;64.70;;;;;;4958152;28;20054;-89
2022/03/10 06:21:46;;;;;;;1999.90;999.90;;;11.90;64.60;;;;;;4956639;28;20046;-89
2022/03/10 06:24:13;;;;;;;1999.90;999.90;;;12.00;64.60;;;;;;4974902;28;20046;-90
2022/03/10 06:26:39;;;;;;;1999.90;999.90;;;12.00;64.60;;;;;;4973686;28;20030;-89
2022/03/10 06:29:05;;;;;;;1999.90;999.90;;;12.00;64.60;;;;;;4958022;28;20046;-90
2022/03/10 06:31:32;;;;;;;1999.90;999.90;;;12.00;64.60;;;;;;4974942;28;20502;-88
2022/03/10 06:33:58;;;;;;;1999.90;999.90;;;12.00;64.70;;;;;;4953583;28;20047;-88
2022/03/10 06:36:25;;;;;;;1999.90;999.90;;;11.90;64.60;;;;;;4957720;28;20039;-88
2022/03/10 06:38:52;;;;;;;1999.90;999.90;;;11.90;64.60;;;;;;4958712;28;20065;-90
2022/03/10 06:41:19;;;;;;;1999.90;999.90;;;11.90;64.70;;;;;;4957375;28;20046;-91
2022/03/10 06:43:45;;;;;;;1999.90;999.90;;;11.90;64.90;;;;;;4973018;28;20039;-91
2022/03/10 06:46:11;;;;;;;1999.90;999.90;;;11.80;64.80;;;;;;4957058;28;20405;-88
2022/03/10 06:48:37;;;;;;;1999.90;999.90;;;11.80;64.90;;;;;;4973473;28;20034;-88
2022/03/10 06:51:04;;;;;;;1999.90;999.90;;;11.80;65.00;;;;;;4972902;28;20031;-90
2022/03/10 06:53:30;;;;;;;1999.90;999.90;;;11.80;65.00;;;;;;4941591;28;20065;-88
2022/03/10 06:55:56;;;;;;;1999.90;999.90;;;11.80;65.10;;;;;;4973524;28;20518;-87
2022/03/10 06:58:22;;;;;;;1999.90;999.90;;;11.70;65.20;;;;;;4957362;28;20050;-87
2022/03/10 07:00:48;;;;;;;1999.90;999.90;;;11.70;65.20;;;;;;4956357;28;20030;-89
2022/03/10 07:03:14;;;;;;;1999.90;999.90;;;11.70;65.40;;;;;;4956370;28;20062;-88
2022/03/10 07:05:40;;;;;;;1999.90;999.90;;;11.70;65.40;;;;;;4974244;28;20057;-89
2022/03/10 07:08:07;;;;;;;1999.90;999.90;;;11.70;65.40;;;;;;4956994;28;20035;-88
2022/03/10 07:10:33;;;;;;;1999.90;999.90;;;11.70;65.40;;;;;;4973781;28;20034;-89
2022/03/10 07:12:59;;;;;;;1999.90;999.90;;;11.70;65.40;;;;;;4956525;28;20039;-89
2022/03/10 07:15:25;;;;;;;1999.90;999.90;;;11.70;65.40;;;;;;4974102;28;20035;-91
2022/03/10 07:17:51;;;;;;;1999.90;999.90;;;11.70;65.50;;;;;;4972743;28;20393;-87
2022/03/10 07:20:18;;;;;;;1999.90;999.90;;;11.70;65.40;;;;;;4971496;28;20031;-87
2022/03/10 07:22:47;;;;;;;1999.90;999.90;;;11.70;65.30;;;;;;4971163;28;20043;-88
2022/03/10 07:25:14;;;;;;;1999.90;999.90;;;11.70;65.30;;;;;;4972158;28;20038;-89
2022/03/10 07:27:40;;;;;;;1999.90;999.90;;;11.80;65.30;;;;;;4967004;28;20257;-87
2022/03/10 07:30:07;;;;;;;1999.90;999.90;;;11.80;65.30;;;;;;4949136;28;20027;-88
2022/03/10 07:32:33;;;;;;;1999.90;999.90;;;11.80;65.30;;;;;;4951710;28;20042;-86
2022/03/10 07:35:00;;;;;;;1999.90;999.90;;;11.80;65.20;;;;;;4971877;28;20031;-86
2022/03/10 07:37:27;;;;;;;1999.90;999.90;;;11.90;65.10;;;;;;4956316;28;20023;-85
2022/03/10 07:39:53;;;;;;;1999.90;999.90;;;11.90;65.10;;;;;;4940736;28;20047;-86
2022/03/10 07:42:19;;;;;;;1999.90;999.90;;;12.00;65.00;;;;;;4957606;28;20023;-88
2022/03/10 07:44:45;;;;;;;1999.90;999.90;;;12.00;65.10;;;;;;4969615;28;20050;-87
2022/03/10 07:47:11;;;;;;;1999.90;999.90;;;12.00;64.90;;;;;;4969839;28;20034;-88
2022/03/10 07:49:37;;;;;;;1999.90;999.90;;;12.00;64.90;;;;;;4967082;28;20030;-90
2022/03/10 07:52:04;;;;;;;1999.90;999.90;;;12.10;64.90;;;;;;4970194;28;20026;-87
2022/03/10 07:54:30;;;;;;;1999.90;999.90;;;12.10;64.70;;;;;;4945012;28;20405;-85
2022/03/10 07:56:57;;;;;;;1999.90;999.90;;;12.20;64.90;;;;;;4964835;28;20030;-85
2022/03/10 07:59:23;;;;;;;1999.90;999.90;;;12.20;64.90;;;;;;4970394;28;20039;-85
2022/03/10 08:01:49;;;;;;;1999.90;999.90;;;12.20;64.80;;;;;;4949491;28;20046;-83
2022/03/10 08:04:16;;;;;;;1999.90;999.90;;;12.30;64.90;;;;;;4954664;28;20062;-83
2022/03/10 08:06:44;;;;;;;1999.90;999.90;;;12.40;64.80;;;;;;4968780;28;20046;-90
2022/03/10 08:09:10;;;;;;;1999.90;999.90;;;12.60;64.40;;;;;;4964377;28;20058;-92
2022/03/10 08:11:40;;;;;;;1999.90;999.90;;;12.80;64.00;;;;;;4963896;28;20035;-89
2022/03/10 08:14:06;;;;;;;1999.90;999.90;;;12.90;63.60;;;;;;4933033;28;20404;-89
2022/03/10 08:16:33;;;;;;;1999.90;999.90;;;13.00;63.70;;;;;;4954557;28;20038;-88
2022/03/10 08:18:59;;;;;;;1999.90;999.90;;;12.90;63.70;;;;;;4948660;28;20049;-83
2022/03/10 08:21:26;;;;;;;1999.90;999.90;;;12.90;63.80;;;;;;4952701;28;20030;-85
2022/03/10 08:23:53;;;;;;;1999.90;999.90;;;12.90;63.90;;;;;;4949786;28;20035;-85
2022/03/10 08:26:19;;;;;;;1999.90;999.90;;;12.90;64.00;;;;;;4963509;28;20022;-85
2022/03/10 08:28:50;;;;;;;1999.90;999.90;;;12.90;64.20;;;;;;4964650;28;20058;-84
2022/03/10 08:31:20;;;;;;;1999.90;999.90;;;12.90;64.20;;;;;;4935867;28;20031;-88
2022/03/10 08:33:46;;;;;;;1999.90;999.90;;;12.90;64.20;;;;;;4953012;28;20030;-86
2022/03/10 08:36:13;;;;;;;1999.90;999.90;;;13.00;64.20;;;;;;4969766;28;20035;-82
2022/03/10 08:38:39;;;;;;;1999.90;999.90;;;13.00;64.20;;;;;;4952666;28;20050;-82
2022/03/10 08:41:05;;;;;;;1999.90;999.90;;;13.10;64.30;;;;;;4951687;28;20038;-82
2022/03/10 08:43:32;;;;;;;1999.90;999.90;;;13.10;64.20;;;;;;4970920;28;20057;-84
2022/03/10 08:45:58;;;;;;;1999.90;999.90;;;13.10;64.10;;;;;;4969968;28;20050;-82
2022/03/10 08:48:25;;;;;;;1999.90;999.90;;;13.10;64.10;;;;;;4966079;28;20039;-82
2022/03/10 08:50:51;;;;;;;1999.90;999.90;;;13.20;64.20;;;;;;4969150;28;20572;-82
2022/03/10 08:53:17;;;;;;;1999.90;999.90;;;13.30;64.20;;;;;;4967707;28;20042;-82
2022/03/10 08:55:44;;;;;;;1999.90;999.90;;;13.30;64.10;;;;;;4969488;28;20464;-89
2022/03/10 08:58:10;;;;;;;1999.90;999.90;;;13.50;64.00;;;;;;4969324;28;20515;-88
2022/03/10 09:00:37;;;;;;;1999.90;999.90;;;13.60;63.70;;;;;;4968393;28;20050;-87
2022/03/10 09:03:03;;;;;;;1999.90;999.90;;;13.80;63.50;;;;;;4972622;28;20053;-87
2022/03/10 09:05:29;;;;;;;1999.90;999.90;;;13.90;63.20;;;;;;4935820;28;20050;-87
2022/03/10 09:07:55;;;;;;;1999.90;999.90;;;14.00;63.00;;;;;;4971676;28;20038;-90
2022/03/10 09:10:21;;;;;;;1999.90;999.90;;;14.10;63.00;;;;;;4940225;28;20053;-87
2022/03/10 09:12:47;;;;;;;1999.90;999.90;;;14.20;63.00;;;;;;4958025;28;20387;-89
2022/03/10 09:15:14;;;;;;;1999.90;999.90;;;14.10;63.00;;;;;;4971871;28;20045;-89
2022/03/10 09:17:40;;;;;;;1999.90;999.90;;;14.10;63.20;;;;;;4957462;28;20058;-86
2022/03/10 09:20:07;;;;;;;1999.90;999.90;;;14.10;63.30;;;;;;4953010;28;20062;-84
2022/03/10 09:22:33;;;;;;;1999.90;999.90;;;14.10;63.40;;;;;;4950108;29;20504;-91
2022/03/10 09:25:05;;;;;;;1999.90;999.90;;;14.00;63.40;;;;;;4972106;28;20051;-91
2022/03/10 09:27:32;;;;;;;1999.90;999.90;;;14.00;63.40;;;;;;4954558;28;20047;-89
2022/03/10 09:29:58;;;;;;;1999.90;999.90;;;14.00;63.60;;;;;;4971210;28;20098;-91
2022/03/10 09:32:24;;;;;;;1999.90;999.90;;;14.00;63.50;;;;;;4991775;28;20042;-91
2022/03/10 09:34:50;;;;;;;1999.90;999.90;;;14.00;63.60;;;;;;4974161;28;20038;-89
2022/03/10 09:37:16;;;;;;;1999.90;999.90;;;14.10;63.50;;;;;;4979388;28;20031;-91
2022/03/10 09:39:42;;;;;;;1999.90;999.90;;;14.10;63.50;;;;;;4971330;28;20508;-91
2022/03/10 09:42:09;;;;;;;1999.90;999.90;;;14.20;64.20;;;;;;4969035;28;20031;-87
2022/03/10 09:44:35;;;;;;;1999.90;999.90;;;14.30;63.40;;;;;;4955024;28;20484;-86
2022/03/10 09:47:03;;;;;;;1999.90;999.90;;;14.30;63.30;;;;;;4969532;28;20031;-85
2022/03/10 09:49:35;;;;;;;1999.90;999.90;;;14.40;63.30;;;;;;4934147;28;20037;-85
2022/03/10 09:52:01;;;;;;;1999.90;999.90;;;14.40;63.20;;;;;;4943834;28;20043;-82
2022/03/10 09:54:29;;;;;;;1999.90;999.90;;;14.50;63.10;;;;;;4948555;29;20032;-84
2022/03/10 09:56:55;;;;;;;1999.90;999.90;;;14.50;63.10;;;;;;4962794;28;20023;-85
2022/03/10 09:59:22;;;;;;;1999.90;999.90;;;14.50;63.20;;;;;;4955038;28;20031;-75
2022/03/10 10:01:49;;;;;;;1999.90;999.90;;;14.50;63.20;;;;;;4940542;28;20043;-88
2022/03/10 10:04:15;;;;;;;1999.90;999.90;;;14.50;63.30;;;;;;4973815;28;20039;-88
2022/03/10 10:07:04;;;;;;;1999.90;999.90;;;14.50;63.30;;;;;;4970584;28;20022;-87
2022/03/10 10:09:47;;;;;;;1999.90;999.90;;;14.50;63.30;;;;;;4971352;28;20030;-92
2022/03/10 10:12:14;;;;;;;1999.90;999.90;;;14.50;64.10;;;;;;4971127;28;20049;-85
2022/03/10 10:14:45;;;;;;;1999.90;999.90;;;14.50;63.40;;;;;;4971265;28;20376;-85
2022/03/10 10:17:11;;;;;;;1999.90;999.90;;;14.50;63.40;;;;;;4971119;28;20032;-87
2022/03/10 10:19:38;;;;;;;1999.90;999.90;;;14.50;63.50;;;;;;4973190;28;20031;-85
2022/03/10 10:22:09;;;;;;;1999.90;999.90;;;14.50;63.40;;;;;;4953793;28;20034;-82
2022/03/10 10:24:37;;;;;;;1999.90;999.90;;;14.50;63.40;;;;;;4953183;28;20039;-83
2022/03/10 10:27:33;;;;;;;1999.90;999.90;;;14.60;63.50;;;;;;4954266;28;20027;-90
2022/03/10 10:30:04;;;;;;;1999.90;999.90;;;14.60;63.40;;;;;;4966834;28;20400;-91
2022/03/10 10:32:31;;;;;;;;;;;14.60;63.30;;;;;;4971402;28;20042;-92
2022/03/10 10:35:21;;;;;;;1999.90;999.90;;;14.60;63.30;;;;;;4956725;28;20383;-92
2022/03/10 10:37:49;;;;;;;1999.90;999.90;;;14.60;63.30;;;;;;4967843;28;20031;-92
2022/03/10 10:40:24;;;;;;;1999.90;999.90;;;14.60;63.40;;;;;;4965018;28;20039;-92
2022/03/10 10:42:50;;;;;;;1999.90;999.90;;;14.50;63.40;;;;;;4970657;28;20027;-89
2022/03/10 10:45:33;;;;;;;1999.90;999.90;;;14.50;63.40;;;;;;4941394;28;20054;-89
2022/03/10 10:48:10;;;;;;;1999.90;999.90;;;14.50;63.60;;;;;;4970579;28;20034;-87
2022/03/10 10:50:39;;;;;;;1999.90;999.90;;;14.50;63.60;;;;;;4972372;28;20358;-87
2022/03/10 10:53:06;;;;;;;1999.90;999.90;;;14.50;63.60;;;;;;4942200;28;20056;-89
2022/03/10 10:55:38;;;;;;;1999.90;999.90;;;14.50;63.60;;;;;;4953560;28;20039;-89
2022/03/10 10:58:14;;;;;;;1999.90;999.90;;;14.50;63.60;;;;;;4971020;28;20030;-83
2022/03/10 11:00:45;;;;;;;1999.90;999.90;;;14.60;63.50;;;;;;4940618;28;20046;-89
2022/03/10 11:03:31;;;;;;;1999.90;999.90;;;14.60;63.50;;;;;;4970298;28;20023;-90
2022/03/10 11:05:58;;;;;;;1999.90;999.90;;;14.70;63.50;;;;;;4971705;28;20038;-92
2022/03/10 11:08:25;;;;;;;1999.90;999.90;;;14.70;63.40;;;;;;4968712;28;20035;-88
2022/03/10 11:10:52;;;;;;;1999.90;999.90;;;14.80;63.40;;;;;;4954355;28;20039;-92
2022/03/10 11:13:18;;;;;;;1999.90;999.90;;;14.80;63.30;;;;;;4967476;28;20465;-92
2022/03/10 11:15:45;;;;;;;1999.90;999.90;;;14.90;63.20;;;;;;4955365;28;20039;-91
2022/03/10 11:18:12;;;;;;;1999.90;999.90;;;15.00;63.10;;;;;;4938708;28;20035;-91
2022/03/10 11:20:42;;;;;;;1999.90;999.90;;;15.10;62.90;;;;;;4953954;28;20038;-90
2022/03/10 11:23:08;;;;;;;1999.90;999.90;;;15.20;62.80;;;;;;4970837;28;20495;-91
2022/03/10 11:25:52;;;;;;;1999.90;999.90;;;15.30;62.70;;;;;;4990190;28;20081;-89
2022/03/10 11:28:28;;;;;;;1999.90;999.90;;;15.40;62.60;;;;;;4971592;28;20038;-93
2022/03/10 11:30:57;;;;;;;1999.90;999.90;;;15.50;62.50;;;;;;4956523;28;20162;-87
2022/03/10 11:33:29;;;;;;;1999.90;999.90;;;15.50;62.40;;;;;;4970059;28;20019;-89
2022/03/10 11:35:55;;;;;;;1999.90;999.90;;;15.50;62.40;;;;;;4969468;28;20373;-88
2022/03/10 11:38:21;;;;;;;1999.90;999.90;;;15.60;62.40;;;;;;4939074;28;20046;-90
2022/03/10 11:40:56;;;;;;;1999.90;999.90;;;15.60;62.30;;;;;;4952723;28;20045;-89
2022/03/10 11:43:25;;;;;;;1999.90;999.90;;;15.60;62.40;;;;;;4950102;28;20043;-92
2022/03/10 11:45:52;;;;;;;1999.90;999.90;;;15.60;62.40;;;;;;4964804;28;20043;-91
2022/03/10 11:48:24;;;;;;;1999.90;999.90;;;15.60;62.50;;;;;;4952610;28;20038;-93
2022/03/10 11:50:50;;;;;;;1999.90;999.90;;;15.60;62.60;;;;;;4970750;28;20034;-92
2022/03/10 11:53:17;;;;;;;1999.90;999.90;;;15.60;62.60;;;;;;4970988;28;20027;-90
2022/03/10 11:55:45;;;;;;;1999.90;999.90;;;15.60;62.60;;;;;;4955874;28;20042;-92
2022/03/10 11:58:13;;;;;;;1999.90;999.90;;;15.60;62.70;;;;;;4969586;28;20089;-93
2022/03/10 12:00:47;;;;;;;1999.90;999.90;;;15.60;62.60;;;;;;4969878;28;20031;-92
2022/03/10 12:03:20;;;;;;;1999.90;999.90;;;15.70;62.60;;;;;;4982531;28;20395;-92
2022/03/10 12:05:57;;;;;;;1999.90;999.90;;;15.70;62.30;;;;;;4972511;28;20515;-92
2022/03/10 12:08:29;;;;;;;1999.90;999.90;;;15.80;62.20;;;;;;4955258;28;20047;-92